Coastal Messenger — CFL9726 — position and weather

sailwx.info

Track history (hours):
 
Tides and Currents Weather Stations Pressure Air Temp Water Temp Dewpoint Dewpoint Depression Visibility Wind Speed Wind Dir Waves Ship Positions

Coastal Messenger

Last reported at 2015-Jun-15 18:18 UTC. Time now 2015-Jul-03 17:23 UTC.
Position N 55°28' W 131°54'.
Warning: this ship's position is 17 days out of date.

Length 16 m.

Type: Pleasure craft. MMSI: 316016342.

Date/timePositionNaut miles runAvg speedWind from/ knotsBaromVisibWave heightAir tempDewpointWater temp
2015-Jun-15 18:18N 55°28' W 131°54'5 7.1
2015-Jun-15 17:33N 55°24' W 131°47'7 6.5
2015-Jun-15 16:31N 55°20' W 131°38'2 2.3
2015-Jun-15 15:32N 55°21' W 131°41'0 0.0
2015-Jun-15 14:32N 55°21' W 131°41'0 0.0
2015-Jun-15 13:32N 55°21' W 131°41'0 0.0
2015-Jun-15 12:32N 55°21' W 131°41'0 0.0
2015-Jun-15 11:32N 55°21' W 131°41'0 0.0
2015-Jun-15 10:32N 55°21' W 131°41'0 0.0
2015-Jun-15 09:32N 55°21' W 131°41'0 0.0
2015-Jun-15 08:32N 55°21' W 131°41'0 0.0
2015-Jun-15 07:32N 55°21' W 131°41'0 0.0
2015-Jun-15 06:32N 55°21' W 131°41'0 0.0
2015-Jun-15 05:32N 55°21' W 131°41'0 0.0
2015-Jun-15 04:32N 55°21' W 131°41'0 0.0
2015-Jun-15 03:32N 55°21' W 131°41'0 0.0
2015-Jun-15 02:32N 55°21' W 131°41'0 0.0
2015-Jun-15 01:32N 55°21' W 131°41'0 0.0
2015-Jun-15 00:32N 55°21' W 131°41'0 0.0
2015-Jun-14 23:32N 55°21' W 131°41'0 0.0
2015-Jun-14 22:32N 55°21' W 131°41'0 0.0
2015-Jun-14 21:32N 55°21' W 131°41'0 0.0
2015-Jun-14 20:32N 55°21' W 131°41'0 0.0
2015-Jun-14 19:32N 55°21' W 131°41'0 0.0
2015-Jun-14 18:32N 55°21' W 131°41'0 0.0
2015-Jun-14 17:32N 55°21' W 131°41'0 0.0
2015-Jun-14 16:32N 55°21' W 131°41'0 0.0
2015-Jun-14 15:32N 55°21' W 131°41'0 0.0
2015-Jun-14 14:32N 55°21' W 131°41'0 0.0
2015-Jun-14 13:32N 55°21' W 131°41'0 0.0
2015-Jun-14 12:32N 55°21' W 131°41'0 0.0
2015-Jun-14 11:32N 55°21' W 131°41'0 0.0
2015-Jun-14 10:32N 55°21' W 131°41'0 0.0
2015-Jun-14 09:32N 55°21' W 131°41'0 0.0
2015-Jun-14 08:32N 55°21' W 131°41'0 0.0
2015-Jun-14 07:32N 55°21' W 131°41'0 0.0
2015-Jun-14 06:32N 55°21' W 131°41'0 0.0
2015-Jun-14 05:32N 55°21' W 131°41'0 0.0
2015-Jun-14 04:32N 55°21' W 131°41'0 0.0
2015-Jun-14 03:32N 55°21' W 131°41'0 0.0
2015-Jun-14 02:33N 55°21' W 131°41'0 0.0
2015-Jun-14 01:33N 55°21' W 131°41'0 0.0
2015-Jun-14 00:33N 55°21' W 131°41'0 0.0
2015-Jun-13 23:33N 55°21' W 131°41'0 0.0
2015-Jun-13 22:33N 55°21' W 131°41'0 0.0
2015-Jun-13 21:33N 55°21' W 131°41'0 0.0
2015-Jun-13 20:33N 55°21' W 131°41'0 0.0
2015-Jun-13 19:33N 55°21' W 131°41'  
2015-Jun-08 19:34N 51°31' W 127°53'27 6.6
2015-Jun-08 15:27N 51°04' W 127°48'7 7.8
2015-Jun-08 14:32N 50°57' W 127°44'8 7.8
2015-Jun-08 13:33N 50°50' W 127°39'1 1.2
2015-Jun-08 12:33N 50°51' W 127°40'0 0.0
2015-Jun-08 11:33N 50°51' W 127°40'0 0.0
2015-Jun-08 10:33N 50°51' W 127°40'0 0.0
2015-Jun-08 09:33N 50°51' W 127°40'0 0.0
2015-Jun-08 08:33N 50°51' W 127°40'0 0.0
2015-Jun-08 07:33N 50°51' W 127°40'0 0.0
2015-Jun-08 06:33N 50°51' W 127°40'0 0.0
2015-Jun-08 05:33N 50°51' W 127°40'0 0.0
2015-Jun-08 04:33N 50°51' W 127°40'0 0.0
2015-Jun-08 03:33N 50°51' W 127°40'0 0.0
2015-Jun-08 02:33N 50°51' W 127°40'0 0.0
2015-Jun-08 01:33N 50°51' W 127°40'0 0.0
2015-Jun-08 00:33N 50°51' W 127°40'4 4.2
2015-Jun-07 23:33N 50°50' W 127°34'7 5.6
2015-Jun-07 22:21N 50°43' W 127°29'0 0.0
2015-Jun-07 10:10N 50°43' W 127°29'0 0.0
2015-Jun-07 08:22N 50°43' W 127°29'0 0.0
2015-Jun-06 16:32N 50°43' W 127°29'0 0.0
2015-Jun-06 14:14N 50°43' W 127°29'0 0.0
2015-Jun-06 13:08N 50°43' W 127°29'0 0.0
2015-Jun-06 08:14N 50°43' W 127°29'0 0.0
2015-Jun-06 07:14N 50°43' W 127°29'0 0.0
2015-Jun-06 06:32N 50°43' W 127°29'0 0.0
2015-Jun-06 04:26N 50°43' W 127°29'0 0.0
2015-Jun-06 03:26N 50°43' W 127°29'0 0.0
2015-Jun-06 02:14N 50°43' W 127°29'0 0.0
2015-Jun-06 00:14N 50°43' W 127°29'0 0.0
2015-Jun-05 22:20N 50°43' W 127°29'0 0.0
2015-Jun-05 19:32N 50°43' W 127°29'  
Track history (hours):
 
Tides and Currents Weather Stations Pressure Air Temp Water Temp Dewpoint Dewpoint Depression Visibility Wind Speed Wind Dir Waves Ship Positions

Coastal Messenger

Last reported at 2015-Jun-15 18:18 UTC. Time now 2015-Jul-03 17:23 UTC.
Position N 55°28' W 131°54'.
Warning: this ship's position is 17 days out of date.

Length 16 m.

Type: Pleasure craft. MMSI: 316016342.

Date/timePositionNaut miles runAvg speedWind from/ knotsBaromVisibWave heightAir tempDewpointWater temp
2015-Jun-15 18:18N 55°28' W 131°54'5 7.1
2015-Jun-15 17:33N 55°24' W 131°47'7 6.5
2015-Jun-15 16:31N 55°20' W 131°38'2 2.3
2015-Jun-15 15:32N 55°21' W 131°41'0 0.0
2015-Jun-15 14:32N 55°21' W 131°41'0 0.0
2015-Jun-15 13:32N 55°21' W 131°41'0 0.0
2015-Jun-15 12:32N 55°21' W 131°41'0 0.0
2015-Jun-15 11:32N 55°21' W 131°41'0 0.0
2015-Jun-15 10:32N 55°21' W 131°41'0 0.0
2015-Jun-15 09:32N 55°21' W 131°41'0 0.0
2015-Jun-15 08:32N 55°21' W 131°41'0 0.0
2015-Jun-15 07:32N 55°21' W 131°41'0 0.0
2015-Jun-15 06:32N 55°21' W 131°41'0 0.0
2015-Jun-15 05:32N 55°21' W 131°41'0 0.0
2015-Jun-15 04:32N 55°21' W 131°41'0 0.0
2015-Jun-15 03:32N 55°21' W 131°41'0 0.0
2015-Jun-15 02:32N 55°21' W 131°41'0 0.0
2015-Jun-15 01:32N 55°21' W 131°41'0 0.0
2015-Jun-15 00:32N 55°21' W 131°41'0 0.0
2015-Jun-14 23:32N 55°21' W 131°41'0 0.0
2015-Jun-14 22:32N 55°21' W 131°41'0 0.0
2015-Jun-14 21:32N 55°21' W 131°41'0 0.0
2015-Jun-14 20:32N 55°21' W 131°41'0 0.0
2015-Jun-14 19:32N 55°21' W 131°41'0 0.0
2015-Jun-14 18:32N 55°21' W 131°41'0 0.0
2015-Jun-14 17:32N 55°21' W 131°41'0 0.0
2015-Jun-14 16:32N 55°21' W 131°41'0 0.0
2015-Jun-14 15:32N 55°21' W 131°41'0 0.0
2015-Jun-14 14:32N 55°21' W 131°41'0 0.0
2015-Jun-14 13:32N 55°21' W 131°41'0 0.0
2015-Jun-14 12:32N 55°21' W 131°41'0 0.0
2015-Jun-14 11:32N 55°21' W 131°41'0 0.0
2015-Jun-14 10:32N 55°21' W 131°41'0 0.0
2015-Jun-14 09:32N 55°21' W 131°41'0 0.0
2015-Jun-14 08:32N 55°21' W 131°41'0 0.0
2015-Jun-14 07:32N 55°21' W 131°41'0 0.0
2015-Jun-14 06:32N 55°21' W 131°41'0 0.0
2015-Jun-14 05:32N 55°21' W 131°41'0 0.0
2015-Jun-14 04:32N 55°21' W 131°41'0 0.0
2015-Jun-14 03:32N 55°21' W 131°41'0 0.0
2015-Jun-14 02:33N 55°21' W 131°41'0 0.0
2015-Jun-14 01:33N 55°21' W 131°41'0 0.0
2015-Jun-14 00:33N 55°21' W 131°41'0 0.0
2015-Jun-13 23:33N 55°21' W 131°41'0 0.0
2015-Jun-13 22:33N 55°21' W 131°41'0 0.0
2015-Jun-13 21:33N 55°21' W 131°41'0 0.0
2015-Jun-13 20:33N 55°21' W 131°41'0 0.0
2015-Jun-13 19:33N 55°21' W 131°41'  
2015-Jun-08 19:34N 51°31' W 127°53'27 6.6
2015-Jun-08 15:27N 51°04' W 127°48'7 7.8
2015-Jun-08 14:32N 50°57' W 127°44'8 7.8
2015-Jun-08 13:33N 50°50' W 127°39'1 1.2
2015-Jun-08 12:33N 50°51' W 127°40'0 0.0
2015-Jun-08 11:33N 50°51' W 127°40'0 0.0
2015-Jun-08 10:33N 50°51' W 127°40'0 0.0
2015-Jun-08 09:33N 50°51' W 127°40'0 0.0
2015-Jun-08 08:33N 50°51' W 127°40'0 0.0
2015-Jun-08 07:33N 50°51' W 127°40'0 0.0
2015-Jun-08 06:33N 50°51' W 127°40'0 0.0
2015-Jun-08 05:33N 50°51' W 127°40'0 0.0
2015-Jun-08 04:33N 50°51' W 127°40'0 0.0
2015-Jun-08 03:33N 50°51' W 127°40'0 0.0
2015-Jun-08 02:33N 50°51' W 127°40'0 0.0
2015-Jun-08 01:33N 50°51' W 127°40'0 0.0
2015-Jun-08 00:33N 50°51' W 127°40'4 4.2
2015-Jun-07 23:33N 50°50' W 127°34'7 5.6
2015-Jun-07 22:21N 50°43' W 127°29'0 0.0
2015-Jun-07 10:10N 50°43' W 127°29'0 0.0
2015-Jun-07 08:22N 50°43' W 127°29'0 0.0
2015-Jun-06 16:32N 50°43' W 127°29'0 0.0
2015-Jun-06 14:14N 50°43' W 127°29'0 0.0
2015-Jun-06 13:08N 50°43' W 127°29'0 0.0
2015-Jun-06 08:14N 50°43' W 127°29'0 0.0
2015-Jun-06 07:14N 50°43' W 127°29'0 0.0
2015-Jun-06 06:32N 50°43' W 127°29'0 0.0
2015-Jun-06 04:26N 50°43' W 127°29'0 0.0
2015-Jun-06 03:26N 50°43' W 127°29'0 0.0
2015-Jun-06 02:14N 50°43' W 127°29'0 0.0
2015-Jun-06 00:14N 50°43' W 127°29'0 0.0
2015-Jun-05 22:20N 50°43' W 127°29'0 0.0
2015-Jun-05 19:32N 50°43' W 127°29'  

Dump ship's entire track history